Latest Weather Observations for Fawkner Beacon

IDV60801

Issued at 5:22 pm EDT Saturday 5 December 2020 (issued every 10 minutes, with the page automatically refreshed every 10 minutes)

About weather observations | Map of weather stations | Latest weather observations for VIC | Other Formats
Station Details ID: 086376 Name: FAWKNER BEACON Lat: -37.95 Lon: 144.93 Height: 17.0 m
Data from the previous 72 hours. | See also: Recent months at Fawkner Beacon
Date/Time
EDT
Temp
°C
App
Temp
°C
Dew
Point
°C
Rel
Hum
%
Delta-T
°C
Wind Press
QNH
hPa
Press
MSL
hPa
Rain since
9am
mm
Dir  Spd
km/h
Gust
km/h
Spd
kts
Gust
kts
05/05:00pm - - - - - N 44 52 24 28 - - -
05/04:30pm - - - - - N 43 54 23 29 - - -
05/04:00pm - - - - - N 50 63 27 34 - - -
05/03:36pm - - - - - N 57 78 31 42 - - -
05/03:30pm - - - - - NNW 56 70 30 38 - - -
05/03:01pm - - - - - NNW 59 78 32 42 - - -
05/03:00pm - - - - - NNW 61 78 33 42 - - -
05/02:30pm - - - - - NNW 65 89 35 48 - - -
05/02:19pm - - - - - N 52 76 28 41 - - -
05/02:00pm - - - - - N 44 57 24 31 - - -
05/01:30pm - - - - - N 46 59 25 32 - - -
05/01:10pm - - - - - N 37 52 20 28 - - -
05/01:00pm - - - - - N 30 33 16 18 - - -
05/12:30pm - - - - - NE 17 35 9 19 - - -
05/12:00pm - - - - - N 24 35 13 19 - - -
05/11:30am - - - - - N 24 41 13 22 - - -
05/11:28am - - - - - NNW 19 35 10 19 - - -
05/11:00am - - - - - NE 9 15 5 8 - - -
05/10:30am - - - - - N 20 26 11 14 - - -
05/10:00am - - - - - N 26 30 14 16 - - -
05/09:30am - - - - - N 22 26 12 14 - - -
05/09:00am - - - - - N 28 33 15 18 - - -
05/08:30am - - - - - N 28 32 15 17 - - -
05/08:00am - - - - - N 24 30 13 16 - - -
05/07:30am - - - - - NNE 24 30 13 16 - - -
05/07:00am - - - - - NNE 22 26 12 14 - - -
05/06:30am - - - - - N 26 30 14 16 - - -
05/06:00am - - - - - N 26 32 14 17 - - -
05/05:30am - - - - - N 26 35 14 19 - - -
05/05:00am - - - - - N 26 32 14 17 - - -
05/04:30am - - - - - N 20 24 11 13 - - -
05/04:00am - - - - - NNE 26 32 14 17 - - -
05/03:30am - - - - - NE 17 20 9 11 - - -
05/03:00am - - - - - ENE 13 17 7 9 - - -
05/02:30am - - - - - ENE 17 22 9 12 - - -
05/02:00am - - - - - ENE 19 22 10 12 - - -
05/01:30am - - - - - E 15 20 8 11 - - -
05/01:00am - - - - - ENE 19 24 10 13 - - -
05/12:30am - - - - - E 19 22 10 12 - - -
05/12:00am - - - - - ESE 17 22 9 12 - - -
 
Date/Time
EDT
Temp
°C
App
Temp
°C
Dew
Point
°C
Rel
Hum
%
Delta-T
°C
Wind Press
QNH
hPa
Press
MSL
hPa
Rain since
9am
mm
Dir  Spd
km/h
Gust
km/h
Spd
kts
Gust
kts
04/11:30pm - - - - - ESE 17 20 9 11 - - -
04/11:00pm - - - - - ESE 20 24 11 13 - - -
04/10:30pm - - - - - ESE 24 28 13 15 - - -
04/10:00pm - - - - - ESE 22 26 12 14 - - -
04/09:30pm - - - - - E 24 28 13 15 - - -
04/09:00pm - - - - - SE 26 30 14 16 - - -
04/08:30pm - - - - - SSE 30 32 16 17 - - -
04/08:00pm - - - - - SSE 28 32 15 17 - - -
04/07:30pm - - - - - SSE 28 32 15 17 - - -
04/07:00pm - - - - - S 30 33 16 18 - - -
04/06:30pm - - - - - S 30 33 16 18 - - -
04/06:00pm - - - - - S 26 30 14 16 - - -
04/05:30pm - - - - - SSE 24 26 13 14 - - -
04/05:00pm - - - - - SE 20 22 11 12 - - -
04/04:30pm - - - - - ESE 19 24 10 13 - - -
04/04:00pm - - - - - ESE 13 17 7 9 - - -
04/03:30pm - - - - - E 11 13 6 7 - - -
04/03:00pm - - - - - ENE 11 13 6 7 - - -
04/02:30pm - - - - - E 11 15 6 8 - - -
04/02:00pm - - - - - E 13 15 7 8 - - -
04/01:30pm - - - - - ESE 13 17 7 9 - - -
04/01:00pm - - - - - SE 6 9 3 5 - - -
04/12:30pm - - - - - S 7 9 4 5 - - -
04/12:00pm - - - - - SW 9 15 5 8 - - -
04/11:30am - - - - - WSW 13 17 7 9 - - -
04/11:00am - - - - - WSW 17 24 9 13 - - -
04/10:30am - - - - - WSW 17 24 9 13 - - -
04/10:00am - - - - - WSW 22 28 12 15 - - -
04/09:30am - - - - - WSW 20 26 11 14 - - -
04/09:00am - - - - - WSW 22 30 12 16 - - -
04/08:30am - - - - - WSW 26 32 14 17 - - -
04/08:00am - - - - - W 22 28 12 15 - - -
04/07:30am - - - - - WSW 26 30 14 16 - - -
04/07:00am - - - - - WSW 28 32 15 17 - - -
04/06:30am - - - - - WSW 20 28 11 15 - - -
04/06:00am - - - - - W 20 24 11 13 - - -
04/05:30am - - - - - NW 11 15 6 8 - - -
04/05:00am - - - - - WNW 13 17 7 9 - - -
04/04:30am - - - - - SW 11 17 6 9 - - -
04/04:00am - - - - - SW 19 24 10 13 - - -
04/03:30am - - - - - SW 22 26 12 14 - - -
04/03:00am - - - - - SW 20 26 11 14 - - -
04/02:30am - - - - - S 20 24 11 13 - - -
04/02:00am - - - - - S 17 22 9 12 - - -
04/01:30am - - - - - S 17 20 9 11 - - -
04/01:00am - - - - - SSE 13 15 7 8 - - -
04/12:30am - - - - - ESE 13 15 7 8 - - -
04/12:00am - - - - - ESE 13 15 7 8 - - -
 
Date/Time
EDT
Temp
°C
App
Temp
°C
Dew
Point
°C
Rel
Hum
%
Delta-T
°C
Wind Press
QNH
hPa
Press
MSL
hPa
Rain since
9am
mm
Dir  Spd
km/h
Gust
km/h
Spd
kts
Gust
kts
03/11:30pm - - - - - ESE 19 24 10 13 - - -
03/11:00pm - - - - - ESE 22 26 12 14 - - -
03/10:30pm - - - - - ESE 20 24 11 13 - - -
03/10:00pm - - - - - SE 22 28 12 15 - - -
03/09:30pm - - - - - SE 24 28 13 15 - - -
03/09:00pm - - - - - SE 28 35 15 19 - - -
03/08:30pm - - - - - SE 28 32 15 17 - - -
03/08:00pm - - - - - SE 30 33 16 18 - - -
03/07:30pm - - - - - SE 30 33 16 18 - - -
03/07:00pm - - - - - ESE 32 35 17 19 - - -
03/06:30pm - - - - - SSE 28 30 15 16 - - -
03/06:00pm - - - - - SSE 26 30 14 16 - - -
03/05:30pm - - - - - SSE 26 30 14 16 - - -
03/05:00pm - - - - - SE 20 24 11 13 - - -
03/04:30pm - - - - - SSE 22 26 12 14 - - -
03/04:00pm - - - - - SSE 22 24 12 13 - - -
03/03:30pm - - - - - SSE 24 26 13 14 - - -
03/03:00pm - - - - - SSE 24 26 13 14 - - -
03/02:30pm - - - - - SE 24 26 13 14 - - -
03/02:00pm - - - - - SE 20 22 11 12 - - -
03/01:30pm - - - - - SE 17 20 9 11 - - -
03/01:00pm - - - - - SE 11 15 6 8 - - -
03/12:30pm - - - - - SSE 11 13 6 7 - - -
03/12:00pm - - - - - SSE 7 11 4 6 - - -
03/11:30am - - - - - SSW 6 7 3 4 - - -
03/11:00am - - - - - CALM 0 0 0 0 - - -
03/10:30am - - - - - NNW 6 9 3 5 - - -
03/10:00am - - - - - NNW 9 11 5 6 - - -
03/09:30am - - - - - N 7 11 4 6 - - -
03/09:00am - - - - - N 6 9 3 5 - - -
03/08:30am - - - - - NNW 7 13 4 7 - - -
03/08:00am - - - - - N 11 15 6 8 - - -
03/07:30am - - - - - N 9 11 5 6 - - -
03/07:00am - - - - - NNE 13 17 7 9 - - -
03/06:30am - - - - - ENE 13 17 7 9 - - -
03/06:00am - - - - - ENE 11 15 6 8 - - -
03/05:30am - - - - - ENE 11 15 6 8 - - -
03/05:00am - - - - - ENE 13 17 7 9 - - -
03/04:30am - - - - - NE 11 15 6 8 - - -
03/04:00am - - - - - ENE 17 22 9 12 - - -
03/03:30am - - - - - E 22 26 12 14 - - -
03/03:00am - - - - - ENE 22 24 12 13 - - -
03/02:30am - - - - - ENE 19 24 10 13 - - -
03/02:00am - - - - - ENE 19 22 10 12 - - -
03/01:30am - - - - - E 22 26 12 14 - - -
03/01:00am - - - - - ENE 22 28 12 15 - - -
03/12:30am - - - - - SE 17 22 9 12 - - -
03/12:00am - - - - - SE 17 22 9 12 - - -
 
Date/Time
EDT
Temp
°C
App
Temp
°C
Dew
Point
°C
Rel
Hum
%
Delta-T
°C
Wind Press
QNH
hPa
Press
MSL
hPa
Rain since
9am
mm
Dir  Spd
km/h
Gust
km/h
Spd
kts
Gust
kts
02/11:30pm - - - - - SE 17 22 9 12 - - -
02/11:00pm - - - - - SE 19 26 10 14 - - -
02/10:30pm - - - - - SE 20 26 11 14 - - -
02/10:00pm - - - - - SE 22 30 12 16 - - -
02/09:30pm - - - - - SSE 24 30 13 16 - - -
02/09:00pm - - - - - SSE 26 30 14 16 - - -
02/08:30pm - - - - - SSE 28 32 15 17 - - -
02/08:00pm - - - - - SSE 26 32 14 17 - - -
02/07:30pm - - - - - SSE 24 32 13 17 - - -
02/07:00pm - - - - - SSE 24 30 13 16 - - -
02/06:30pm - - - - - SSE 28 35 15 19 - - -
02/06:00pm - - - - - S 24 30 13 16 - - -
02/05:30pm - - - - - SSE 26 30 14 16 - - -

Other formats

Comma delimited format used in spreadsheet applications
http://www.bom.gov.au/fwo/IDV60801/IDV60801.95872.axf

JavaScript Object Notation format (JSON) in row-major order
http://www.bom.gov.au/fwo/IDV60801/IDV60801.95872.json

Data quality

Most of these data are generated automatically and are frequently updated. Quality checks on data are not normally performed. It is possible for incorrect values to appear. Refer to information at About Latest Weather Observations and please check the disclaimer before using these data.